Time;durP1;ratioP1;P1;durP2;ratioP2;P2;SDS_P1;SDS_P2;PMS_P1;PMS_P2;Temp;Humidity;BMP_temperature;BMP_pressure;BME280_temperature;BME280_humidity;BME280_pressure;Samples;Min_cycle;Max_cycle;Signal;HPM_P1;HPM_P2
2023/03/10 00:00:48;;;;;;;23.73;15.30;;;2.10;99.90;;;;;;5042875;28;20210;-57
2023/03/10 00:03:15;;;;;;;24.60;15.60;;;2.10;99.90;;;;;;5046019;28;20572;-51
2023/03/10 00:05:42;;;;;;;25.57;15.10;;;2.10;99.90;;;;;;5035516;28;20214;-58
2023/03/10 00:08:09;;;;;;;23.63;14.80;;;2.10;99.90;;;;;;5047224;28;20932;-47
2023/03/10 00:10:38;;;;;;;24.87;15.33;;;2.00;99.90;;;;;;5044907;28;20198;-55
2023/03/10 00:13:04;;;;;;;23.57;14.27;;;2.00;99.90;;;;;;5043500;28;20210;-47
2023/03/10 00:15:31;;;;;;;21.40;13.73;;;2.10;99.90;;;;;;5046055;28;20195;-50
2023/03/10 00:17:58;;;;;;;23.87;14.50;;;2.10;99.90;;;;;;5047420;28;20194;-45
2023/03/10 00:20:25;;;;;;;22.53;14.73;;;2.00;99.90;;;;;;5060015;28;20226;-45
2023/03/10 00:22:52;;;;;;;21.10;12.90;;;2.00;99.90;;;;;;5033403;28;20318;-48
2023/03/10 00:25:19;;;;;;;24.00;14.37;;;2.00;99.90;;;;;;5051638;28;20198;-44
2023/03/10 00:27:51;;;;;;;23.87;15.17;;;2.00;99.90;;;;;;5059908;28;20202;-55
2023/03/10 00:30:18;;;;;;;23.43;14.17;;;2.00;99.90;;;;;;5065008;28;20198;-49
2023/03/10 00:32:45;;;;;;;25.47;14.17;;;2.00;99.90;;;;;;5060109;28;20305;-54
2023/03/10 00:35:33;;;;;;;22.83;13.83;;;2.00;99.90;;;;;;5060055;28;20217;-57
2023/03/10 00:38:01;;;;;;;23.63;14.67;;;2.00;99.90;;;;;;5048840;28;20216;-47
2023/03/10 00:40:28;;;;;;;21.97;13.60;;;2.00;99.90;;;;;;5056502;28;20219;-44
2023/03/10 00:42:58;;;;;;;25.13;15.00;;;2.00;99.90;;;;;;5060542;28;20232;-45
2023/03/10 00:45:25;;;;;;;23.47;15.00;;;2.00;99.90;;;;;;5063304;28;20734;-45
2023/03/10 00:47:52;;;;;;;24.03;14.87;;;2.00;99.90;;;;;;5060152;28;20811;-45
2023/03/10 00:50:19;;;;;;;24.77;14.43;;;2.00;99.90;;;;;;5051933;28;20196;-51
2023/03/10 00:52:46;;;;;;;23.03;14.53;;;2.00;99.90;;;;;;5037411;28;20225;-55
2023/03/10 00:55:13;;;;;;;25.03;16.37;;;2.00;99.90;;;;;;5046669;28;20663;-47
2023/03/10 00:57:39;;;;;;;22.23;14.33;;;1.90;99.90;;;;;;5042695;28;20633;-54
2023/03/10 01:00:11;;;;;;;24.47;15.77;;;1.90;99.90;;;;;;5043636;28;20264;-45
2023/03/10 01:02:38;;;;;;;25.63;14.80;;;1.90;99.90;;;;;;5043419;28;20211;-52
2023/03/10 01:05:04;;;;;;;28.13;16.57;;;1.90;99.90;;;;;;5041374;28;20197;-44
2023/03/10 01:07:32;;;;;;;25.47;15.07;;;1.90;99.90;;;;;;5034036;28;20673;-55
2023/03/10 01:09:59;;;;;;;25.63;15.73;;;1.90;99.90;;;;;;5053498;28;20201;-49
2023/03/10 01:12:26;;;;;;;24.17;15.77;;;1.90;99.90;;;;;;5048382;28;20209;-46
2023/03/10 01:14:52;;;;;;;28.10;15.57;;;1.90;99.90;;;;;;5039620;28;20199;-44
2023/03/10 01:17:20;;;;;;;23.67;15.33;;;1.90;99.90;;;;;;5039240;28;20210;-57
2023/03/10 01:19:50;;;;;;;28.03;16.80;;;1.80;99.90;;;;;;5054979;28;20228;-45
2023/03/10 01:22:17;;;;;;;28.53;16.63;;;1.80;99.90;;;;;;5037034;28;20238;-56
2023/03/10 01:24:44;;;;;;;26.83;16.20;;;1.80;99.90;;;;;;5046205;28;20229;-50
2023/03/10 01:27:11;;;;;;;26.63;15.97;;;1.80;99.90;;;;;;5045880;28;20696;-53
2023/03/10 01:29:38;;;;;;;26.03;15.63;;;1.80;99.90;;;;;;5040777;28;20226;-49
2023/03/10 01:32:05;;;;;;;25.93;15.23;;;1.80;99.90;;;;;;5044928;28;20203;-46
2023/03/10 01:34:33;;;;;;;25.37;14.90;;;1.70;99.90;;;;;;5040021;28;20307;-49
2023/03/10 01:37:00;;;;;;;24.07;15.77;;;1.70;99.90;;;;;;5044769;28;20202;-45
2023/03/10 01:39:27;;;;;;;28.33;16.40;;;1.70;99.90;;;;;;5027788;28;20206;-55
2023/03/10 01:41:54;;;;;;;27.37;15.67;;;1.70;99.90;;;;;;5054139;28;20202;-53
2023/03/10 01:44:21;;;;;;;25.03;15.13;;;1.70;99.90;;;;;;5040224;28;20231;-56
2023/03/10 01:46:50;;;;;;;24.17;15.23;;;1.70;99.90;;;;;;5042141;28;20215;-45
2023/03/10 01:49:29;;;;;;;26.53;16.57;;;1.70;99.90;;;;;;5043931;28;20210;-55
2023/03/10 01:52:02;;;;;;;25.40;15.23;;;1.70;99.90;;;;;;5051458;28;20199;-47
2023/03/10 01:54:35;;;;;;;24.50;15.57;;;1.70;99.90;;;;;;5032603;28;20276;-52
2023/03/10 01:57:05;;;;;;;24.43;15.10;;;1.70;99.90;;;;;;5051739;28;20206;-47
2023/03/10 01:59:32;;;;;;;25.40;14.90;;;1.70;99.90;;;;;;5039647;28;20219;-46
2023/03/10 02:02:01;;;;;;;26.13;14.57;;;1.60;99.90;;;;;;5044224;28;20211;-47
2023/03/10 02:04:35;;;;;;;21.60;14.10;;;1.60;99.90;;;;;;5038594;28;20241;-56
2023/03/10 02:07:05;;;;;;;25.20;15.37;;;1.70;99.90;;;;;;5044083;28;20195;-47
2023/03/10 02:09:36;;;;;;;23.87;14.20;;;1.70;99.90;;;;;;5032831;28;20202;-50
2023/03/10 02:12:04;;;;;;;24.90;15.30;;;1.70;99.90;;;;;;5045963;28;20222;-45
2023/03/10 02:14:34;;;;;;;22.40;13.77;;;1.60;99.90;;;;;;5038176;28;20218;-52
2023/03/10 02:17:01;;;;;;;28.63;16.27;;;1.60;99.90;;;;;;5044130;28;20234;-49
2023/03/10 02:19:38;;;;;;;24.93;15.17;;;1.60;99.90;;;;;;5052390;28;20230;-53
2023/03/10 02:22:11;;;;;;;23.30;13.57;;;1.60;99.90;;;;;;5044928;28;20282;-46
2023/03/10 02:24:46;;;;;;;22.53;14.07;;;1.60;99.90;;;;;;5027040;28;23498;-49
2023/03/10 02:27:24;;;;;;;25.83;14.37;;;1.60;99.90;;;;;;5050759;28;20216;-54
2023/03/10 02:29:56;;;;;;;22.07;13.43;;;1.60;99.90;;;;;;5041423;28;20241;-48
2023/03/10 02:32:24;;;;;;;20.73;13.33;;;1.60;99.90;;;;;;5056599;28;20209;-54
2023/03/10 02:34:51;;;;;;;22.07;13.83;;;1.60;99.90;;;;;;5061663;28;20226;-51
2023/03/10 02:37:20;;;;;;;23.90;14.23;;;1.60;99.90;;;;;;5059546;28;20206;-55
2023/03/10 02:39:47;;;;;;;20.67;14.07;;;1.60;99.90;;;;;;5043843;28;20229;-47
2023/03/10 02:42:14;;;;;;;21.87;14.30;;;1.60;99.90;;;;;;5056907;28;20201;-55
2023/03/10 02:44:44;;;;;;;22.27;13.37;;;1.50;99.90;;;;;;5041239;28;20807;-48
2023/03/10 02:47:13;;;;;;;20.10;13.73;;;1.50;99.90;;;;;;5041660;28;20575;-56
2023/03/10 02:49:41;;;;;;;22.43;14.13;;;1.50;99.90;;;;;;5042698;28;20194;-46
2023/03/10 02:52:31;;;;;;;21.10;13.10;;;1.50;99.90;;;;;;5043572;28;20209;-55
2023/03/10 02:54:58;;;;;;;21.20;14.27;;;1.50;99.90;;;;;;5042971;28;20203;-46
2023/03/10 02:57:47;;;;;;;19.70;12.70;;;1.50;99.90;;;;;;5039927;28;20352;-46
2023/03/10 03:00:16;;;;;;;20.47;13.30;;;1.50;99.90;;;;;;5048120;28;20618;-56
2023/03/10 03:02:43;;;;;;;22.50;14.50;;;1.50;99.90;;;;;;5040565;28;20191;-56
2023/03/10 03:05:12;;;;;;;22.53;14.33;;;1.50;99.90;;;;;;5041324;28;20212;-55
2023/03/10 03:07:39;;;;;;;21.37;13.30;;;1.50;99.90;;;;;;5039683;28;20879;-46
2023/03/10 03:10:07;;;;;;;21.30;13.77;;;1.50;99.90;;;;;;5042581;28;20190;-53
2023/03/10 03:12:33;;;;;;;21.13;13.43;;;1.50;99.90;;;;;;5035810;28;20199;-45
2023/03/10 03:15:00;;;;;;;22.07;13.57;;;1.50;99.90;;;;;;5053520;28;20544;-48
2023/03/10 03:17:29;;;;;;;20.37;13.57;;;1.40;99.90;;;;;;5043019;28;20209;-54
2023/03/10 03:19:56;;;;;;;21.70;13.47;;;1.50;99.90;;;;;;5055362;28;20236;-49
2023/03/10 03:22:23;;;;;;;24.17;13.83;;;1.40;99.90;;;;;;5044335;28;20219;-55
2023/03/10 03:24:50;;;;;;;22.30;13.87;;;1.50;99.90;;;;;;5045041;28;20234;-45
2023/03/10 03:27:17;;;;;;;22.97;13.80;;;1.40;99.90;;;;;;5037563;28;20214;-56
2023/03/10 03:29:45;;;;;;;20.93;14.50;;;1.50;99.90;;;;;;5040408;28;20952;-49
2023/03/10 03:32:13;;;;;;;25.90;14.23;;;1.50;99.90;;;;;;5050431;28;20274;-57
2023/03/10 03:34:41;;;;;;;25.43;14.43;;;1.50;99.90;;;;;;5042060;28;20324;-48
2023/03/10 03:37:09;;;;;;;22.33;14.17;;;1.50;99.90;;;;;;5045739;28;20213;-49
2023/03/10 03:39:38;;;;;;;23.83;14.33;;;1.40;99.90;;;;;;5043441;28;21070;-49
2023/03/10 03:42:07;;;;;;;20.13;13.73;;;1.40;99.90;;;;;;5045293;28;20759;-49
2023/03/10 03:44:43;;;;;;;25.63;14.03;;;1.40;99.90;;;;;;5052682;28;20232;-45
2023/03/10 03:47:11;;;;;;;23.20;13.93;;;1.40;99.90;;;;;;5049063;28;20231;-52
2023/03/10 03:49:38;;;;;;;24.53;13.83;;;1.40;99.90;;;;;;5057362;28;20247;-46
2023/03/10 03:52:07;;;;;;;20.73;14.13;;;1.40;99.90;;;;;;5048760;28;20203;-55
2023/03/10 03:54:34;;;;;;;20.70;12.87;;;1.40;99.90;;;;;;5050618;28;20223;-48
2023/03/10 03:57:01;;;;;;;22.60;14.57;;;1.40;99.90;;;;;;5043896;28;20202;-49
2023/03/10 03:59:28;;;;;;;22.17;15.10;;;1.40;99.90;;;;;;5032735;28;20190;-48
2023/03/10 04:01:56;;;;;;;20.97;13.33;;;1.40;99.90;;;;;;5047883;28;20305;-48
2023/03/10 04:04:24;;;;;;;22.30;13.73;;;1.40;99.90;;;;;;5040563;28;20308;-53
2023/03/10 04:06:51;;;;;;;22.60;14.83;;;1.30;99.90;;;;;;5040113;28;20290;-56
2023/03/10 04:09:19;;;;;;;22.57;13.37;;;1.30;99.90;;;;;;5045783;28;20199;-50
2023/03/10 04:11:46;;;;;;;22.17;14.23;;;1.30;99.90;;;;;;5040887;28;20301;-56
2023/03/10 04:14:13;;;;;;;25.97;15.03;;;1.30;99.90;;;;;;5030140;28;20221;-46
2023/03/10 04:16:40;;;;;;;21.30;13.90;;;1.30;99.90;;;;;;5053797;28;20206;-56
2023/03/10 04:19:07;;;;;;;26.10;16.17;;;1.30;99.90;;;;;;5055344;28;20200;-45
2023/03/10 04:21:35;;;;;;;23.20;15.10;;;1.20;99.90;;;;;;5053778;28;20217;-46
2023/03/10 04:24:02;;;;;;;24.43;14.43;;;1.30;99.90;;;;;;5044864;28;20301;-47
2023/03/10 04:26:33;;;;;;;24.47;14.73;;;1.20;99.90;;;;;;5060467;28;20254;-45
2023/03/10 04:29:01;;;;;;;22.80;14.70;;;1.20;99.90;;;;;;5042738;28;20268;-45
2023/03/10 04:31:33;;;;;;;23.53;14.17;;;1.20;99.90;;;;;;5038877;28;20610;-47
2023/03/10 04:34:01;;;;;;;23.43;15.13;;;1.20;99.90;;;;;;5041868;28;20331;-46
2023/03/10 04:36:29;;;;;;;21.83;14.10;;;1.20;99.90;;;;;;5044645;28;20203;-50
2023/03/10 04:38:58;;;;;;;24.10;14.00;;;1.20;99.90;;;;;;5059599;28;20645;-46
2023/03/10 04:41:29;;;;;;;23.30;14.50;;;1.10;99.90;;;;;;5050434;28;20227;-45
2023/03/10 04:43:57;;;;;;;22.93;13.70;;;1.10;99.90;;;;;;5039406;28;20543;-50
2023/03/10 04:46:24;;;;;;;20.63;12.77;;;1.10;99.90;;;;;;5041431;28;20217;-51
2023/03/10 04:48:51;;;;;;;26.30;13.83;;;1.10;99.90;;;;;;5052400;28;20202;-57
2023/03/10 04:51:19;;;;;;;21.73;13.97;;;1.10;99.90;;;;;;5050091;28;20207;-48
2023/03/10 04:53:50;;;;;;;24.07;14.27;;;1.10;99.90;;;;;;5040847;28;20241;-55
2023/03/10 04:56:17;;;;;;;21.93;13.60;;;1.10;99.90;;;;;;5043550;28;20233;-48
2023/03/10 04:58:44;;;;;;;24.07;14.70;;;1.00;99.90;;;;;;5045848;28;20204;-55
2023/03/10 05:01:14;;;;;;;26.53;14.63;;;1.10;99.90;;;;;;5031342;28;20229;-48
2023/03/10 05:03:46;;;;;;;26.43;14.10;;;1.10;99.90;;;;;;5051073;28;20221;-54
2023/03/10 05:06:14;;;;;;;23.43;14.33;;;1.00;99.90;;;;;;5042253;28;20207;-48
2023/03/10 05:08:41;;;;;;;22.73;13.20;;;1.00;99.90;;;;;;5044135;28;20896;-55
2023/03/10 05:11:09;;;;;;;26.83;15.13;;;1.00;99.90;;;;;;5041210;28;20192;-45
2023/03/10 05:13:35;;;;;;;25.13;15.07;;;1.00;99.90;;;;;;5044122;28;20730;-49
2023/03/10 05:16:03;;;;;;;24.60;15.70;;;1.00;99.90;;;;;;5027815;28;22555;-50
2023/03/10 05:18:32;;;;;;;24.43;15.70;;;1.00;99.90;;;;;;5052291;28;20260;-46
2023/03/10 05:20:59;;;;;;;26.20;15.60;;;1.00;99.90;;;;;;5040574;28;20309;-47
2023/03/10 05:23:27;;;;;;;27.97;15.97;;;1.00;99.90;;;;;;5043108;28;20728;-46
2023/03/10 05:25:54;;;;;;;30.47;16.83;;;1.00;99.90;;;;;;5039861;28;20229;-55
2023/03/10 05:28:23;;;;;;;30.93;16.37;;;1.00;99.90;;;;;;5042996;28;20198;-45
2023/03/10 05:30:52;;;;;;;27.80;16.00;;;1.00;99.90;;;;;;5043974;28;20301;-56
2023/03/10 05:33:18;;;;;;;29.10;17.10;;;1.00;99.90;;;;;;5036293;28;20230;-46
2023/03/10 05:35:46;;;;;;;28.77;16.47;;;0.90;99.90;;;;;;5055287;28;20212;-56
2023/03/10 05:38:13;;;;;;;28.57;15.23;;;1.00;99.90;;;;;;5041897;28;20886;-47
2023/03/10 05:40:40;;;;;;;28.80;16.47;;;1.00;99.90;;;;;;5044110;28;20942;-55
2023/03/10 05:43:07;;;;;;;26.20;16.13;;;0.90;99.90;;;;;;5041334;28;20245;-46
2023/03/10 05:45:34;;;;;;;27.33;15.47;;;1.00;99.90;;;;;;5045438;28;20208;-50
2023/03/10 05:48:20;;;;;;;29.27;16.33;;;0.90;99.90;;;;;;5039526;28;20229;-49
2023/03/10 05:50:58;;;;;;;25.23;15.73;;;0.90;99.90;;;;;;5045452;28;20745;-56
2023/03/10 05:53:27;;;;;;;25.57;14.30;;;0.90;99.90;;;;;;5044078;28;20230;-45
2023/03/10 05:55:55;;;;;;;27.30;15.83;;;0.90;99.90;;;;;;5039333;28;20284;-55
2023/03/10 05:58:23;;;;;;;24.90;15.03;;;0.90;99.90;;;;;;5041620;28;20700;-46
2023/03/10 06:00:50;;;;;;;26.50;15.27;;;0.90;99.90;;;;;;5046321;28;20220;-55
2023/03/10 06:03:17;;;;;;;24.40;14.53;;;0.90;99.90;;;;;;5038758;28;20256;-49
2023/03/10 06:05:44;;;;;;;22.23;14.03;;;0.90;99.90;;;;;;5054899;28;20652;-56
2023/03/10 06:08:12;;;;;;;24.50;15.03;;;0.90;99.90;;;;;;5042883;28;20190;-49
2023/03/10 06:10:39;;;;;;;24.10;14.20;;;0.90;99.90;;;;;;5043334;28;20205;-56
2023/03/10 06:13:06;;;;;;;24.07;14.67;;;0.90;99.90;;;;;;5052450;28;20219;-46
2023/03/10 06:15:33;;;;;;;25.23;15.17;;;0.90;99.90;;;;;;5042892;28;20210;-45
2023/03/10 06:17:59;;;;;;;24.77;14.90;;;0.90;99.90;;;;;;5031197;28;20218;-49
2023/03/10 06:20:27;;;;;;;24.67;14.23;;;0.90;99.90;;;;;;5055639;28;20780;-48
2023/03/10 06:22:54;;;;;;;21.27;13.73;;;0.90;99.90;;;;;;5043716;28;20250;-53
2023/03/10 06:25:22;;;;;;;21.40;13.20;;;0.90;99.90;;;;;;5040846;28;20688;-51
2023/03/10 06:28:11;;;;;;;21.13;13.93;;;0.90;99.90;;;;;;5051125;28;20208;-49
2023/03/10 06:30:38;;;;;;;21.23;13.30;;;0.90;99.90;;;;;;5044165;28;20825;-54
2023/03/10 06:33:05;;;;;;;20.70;12.90;;;0.90;99.90;;;;;;5045908;28;20249;-51
2023/03/10 06:35:32;;;;;;;20.17;12.23;;;0.90;99.90;;;;;;5038280;28;20202;-56
2023/03/10 06:37:59;;;;;;;24.77;14.47;;;0.90;99.90;;;;;;5051322;28;20199;-47
2023/03/10 06:40:28;;;;;;;23.20;13.00;;;0.90;99.90;;;;;;5052478;28;20272;-56
2023/03/10 06:42:55;;;;;;;18.83;12.70;;;0.90;99.90;;;;;;5045696;28;20901;-49
2023/03/10 06:45:22;;;;;;;18.83;12.33;;;0.90;99.90;;;;;;5049336;28;20205;-55
2023/03/10 06:47:49;;;;;;;18.47;12.37;;;0.90;99.90;;;;;;5038243;28;20970;-45
2023/03/10 06:50:18;;;;;;;19.53;13.10;;;0.90;99.90;;;;;;5028365;28;20219;-50
2023/03/10 06:52:45;;;;;;;18.37;11.70;;;0.90;99.90;;;;;;5047135;28;20189;-48
2023/03/10 06:55:32;;;;;;;17.93;11.93;;;1.00;99.90;;;;;;5044593;28;20291;-54
2023/03/10 06:57:59;;;;;;;17.93;11.63;;;1.00;99.90;;;;;;5053607;28;20210;-46
2023/03/10 07:00:28;;;;;;;18.00;11.93;;;1.00;99.90;;;;;;5050820;28;20703;-57
2023/03/10 07:02:55;;;;;;;18.87;12.20;;;1.00;99.90;;;;;;5039771;28;21031;-48
2023/03/10 07:05:23;;;;;;;17.50;11.67;;;1.10;99.90;;;;;;5036662;28;20216;-55
2023/03/10 07:07:50;;;;;;;20.50;11.67;;;1.10;99.90;;;;;;5048150;28;20282;-47
2023/03/10 07:10:18;;;;;;;21.80;12.83;;;1.10;99.90;;;;;;5052597;28;20216;-49
2023/03/10 07:12:53;;;;;;;19.73;11.90;;;1.10;99.90;;;;;;5043999;28;20215;-52
2023/03/10 07:15:21;;;;;;;20.50;12.53;;;1.10;99.90;;;;;;5039420;28;20213;-48
2023/03/10 07:17:47;;;;;;;17.70;11.33;;;1.10;99.90;;;;;;5041622;28;20210;-45
2023/03/10 07:20:14;;;;;;;19.10;11.97;;;1.10;99.90;;;;;;5030532;28;20284;-57
2023/03/10 07:22:41;;;;;;;19.03;11.77;;;1.20;99.90;;;;;;5053574;28;20779;-53
2023/03/10 07:25:09;;;;;;;20.27;11.63;;;1.20;99.90;;;;;;5050600;28;20205;-56
2023/03/10 07:27:35;;;;;;;20.17;12.57;;;1.30;99.90;;;;;;5050599;28;20200;-49
2023/03/10 07:30:04;;;;;;;15.57;11.53;;;1.30;99.90;;;;;;5051827;28;20245;-58
2023/03/10 07:32:33;;;;;;;17.60;11.10;;;1.30;99.90;;;;;;5038899;28;20228;-51
2023/03/10 07:34:59;;;;;;;20.83;12.50;;;1.30;99.90;;;;;;5036382;28;20211;-57
2023/03/10 07:37:26;;;;;;;16.53;11.70;;;1.30;99.90;;;;;;5042440;28;20202;-45
2023/03/10 07:39:53;;;;;;;18.37;12.33;;;1.30;99.90;;;;;;5052676;28;20542;-56
2023/03/10 07:42:20;;;;;;;20.30;12.17;;;1.30;99.90;;;;;;5046042;28;20215;-46
2023/03/10 07:44:47;;;;;;;18.33;11.63;;;1.30;99.90;;;;;;5050776;28;20257;-54
2023/03/10 07:47:15;;;;;;;18.67;12.07;;;1.40;99.90;;;;;;5044231;28;20470;-52
2023/03/10 07:49:45;;;;;;;17.53;12.43;;;1.40;99.90;;;;;;5054332;28;20267;-50
2023/03/10 07:52:13;;;;;;;18.53;12.60;;;1.40;99.90;;;;;;5030285;28;20206;-50
2023/03/10 07:54:40;;;;;;;20.40;12.87;;;1.40;99.90;;;;;;5045932;28;20561;-56
2023/03/10 07:57:06;;;;;;;18.67;12.60;;;1.40;99.90;;;;;;5048818;28;20237;-47
2023/03/10 07:59:33;;;;;;;19.67;12.30;;;1.40;99.90;;;;;;5047555;28;20679;-47
2023/03/10 08:02:00;;;;;;;16.50;11.40;;;1.40;99.90;;;;;;5049281;28;20283;-46
2023/03/10 08:04:28;;;;;;;18.03;11.93;;;1.40;99.90;;;;;;5047143;28;20696;-50
2023/03/10 08:06:55;;;;;;;19.17;12.13;;;1.40;99.90;;;;;;5030920;28;20206;-58
2023/03/10 08:09:22;;;;;;;18.00;12.07;;;1.40;99.90;;;;;;5056654;28;20199;-47
2023/03/10 08:11:48;;;;;;;17.07;11.27;;;1.40;99.90;;;;;;5042838;28;20285;-56
2023/03/10 08:14:18;;;;;;;19.40;11.67;;;1.50;99.90;;;;;;5047161;28;20315;-51
2023/03/10 08:16:47;;;;;;;18.33;12.00;;;1.50;99.90;;;;;;5050701;28;20218;-55
2023/03/10 08:19:14;;;;;;;18.80;12.60;;;1.50;99.90;;;;;;5048149;28;20528;-47
2023/03/10 08:21:42;;;;;;;18.70;12.87;;;1.50;99.90;;;;;;5043885;28;20229;-57
2023/03/10 08:24:09;;;;;;;17.13;11.63;;;1.50;99.90;;;;;;5040618;28;20214;-53
2023/03/10 08:26:36;;;;;;;18.23;12.53;;;1.50;99.90;;;;;;5042941;28;20210;-50
2023/03/10 08:29:03;;;;;;;18.60;11.43;;;1.50;99.90;;;;;;5043544;28;20217;-49
2023/03/10 08:31:30;;;;;;;17.87;11.30;;;1.50;99.90;;;;;;5049367;28;20194;-48
2023/03/10 08:33:57;;;;;;;20.20;12.53;;;1.50;99.90;;;;;;5048693;28;20222;-58
2023/03/10 08:36:27;;;;;;;18.17;11.87;;;1.60;99.90;;;;;;5053405;28;20559;-50
2023/03/10 08:38:58;;;;;;;18.43;12.73;;;1.60;99.90;;;;;;5033272;28;20218;-46
2023/03/10 08:41:27;;;;;;;18.03;11.53;;;1.60;99.90;;;;;;5045526;28;20273;-52
2023/03/10 08:43:54;;;;;;;20.70;12.57;;;1.60;99.90;;;;;;5052492;28;20214;-50
2023/03/10 08:46:23;;;;;;;19.00;11.30;;;1.60;99.90;;;;;;5053968;28;20201;-50
2023/03/10 08:48:50;;;;;;;16.60;12.20;;;1.60;99.90;;;;;;5051220;28;20198;-46
2023/03/10 08:51:18;;;;;;;19.10;12.77;;;1.70;99.90;;;;;;5041361;28;20203;-57
2023/03/10 08:53:46;;;;;;;19.27;12.23;;;1.70;99.90;;;;;;5036030;28;20237;-46
2023/03/10 08:56:16;;;;;;;19.80;12.40;;;1.70;99.90;;;;;;5046625;28;20202;-57
2023/03/10 08:58:43;;;;;;;21.33;12.53;;;1.70;99.90;;;;;;5046576;28;20205;-46
2023/03/10 09:01:11;;;;;;;18.37;12.50;;;1.70;99.90;;;;;;5048572;28;20221;-55
2023/03/10 09:03:39;;;;;;;26.17;11.97;;;1.70;99.90;;;;;;5048503;28;20242;-47
2023/03/10 09:06:06;;;;;;;18.83;11.87;;;1.70;99.90;;;;;;5038964;28;20210;-49
2023/03/10 09:08:33;;;;;;;18.17;12.10;;;1.70;99.90;;;;;;5024648;28;20214;-55
2023/03/10 09:11:01;;;;;;;17.33;11.00;;;1.80;99.90;;;;;;5035153;28;20322;-46
2023/03/10 09:13:29;;;;;;;18.37;11.23;;;1.80;99.90;;;;;;5052851;28;20221;-49
2023/03/10 09:15:56;;;;;;;16.33;11.13;;;1.80;99.90;;;;;;5048943;28;20199;-48
2023/03/10 09:18:23;;;;;;;18.23;11.43;;;1.80;99.90;;;;;;5055534;28;20606;-45
2023/03/10 09:20:50;;;;;;;17.67;11.80;;;1.80;99.90;;;;;;5044762;28;20204;-54
2023/03/10 09:23:17;;;;;;;18.50;11.23;;;1.90;99.90;;;;;;5049371;28;20692;-50
2023/03/10 09:25:44;;;;;;;20.43;11.80;;;1.90;99.90;;;;;;5034808;28;20256;-56
2023/03/10 09:28:11;;;;;;;18.63;11.77;;;1.90;99.90;;;;;;5043860;28;20267;-47
2023/03/10 09:30:41;;;;;;;19.73;12.43;;;1.90;99.90;;;;;;5047042;28;20595;-56
2023/03/10 09:33:15;;;;;;;20.07;12.47;;;1.90;99.90;;;;;;5049649;28;20214;-51
2023/03/10 09:35:42;;;;;;;24.97;12.87;;;1.90;99.90;;;;;;5050693;28;20273;-55
2023/03/10 09:38:09;;;;;;;23.50;13.87;;;1.90;99.90;;;;;;5048222;28;20218;-47
2023/03/10 09:40:39;;;;;;;20.37;12.20;;;1.90;99.90;;;;;;5033447;28;20202;-53
2023/03/10 09:43:07;;;;;;;22.20;12.07;;;1.90;99.90;;;;;;5043866;28;20223;-45
2023/03/10 09:45:43;;;;;;;20.70;12.20;;;1.90;99.90;;;;;;5053398;28;20662;-54
2023/03/10 09:48:26;;;;;;;23.97;12.63;;;1.90;99.90;;;;;;5054867;28;20526;-46
2023/03/10 09:50:55;;;;;;;23.20;12.50;;;1.90;99.90;;;;;;5049542;28;20243;-45
2023/03/10 09:53:34;;;;;;;17.20;11.90;;;1.90;99.90;;;;;;5042012;28;20215;-46
2023/03/10 09:56:03;;;;;;;23.57;12.87;;;1.90;99.90;;;;;;5028296;28;20372;-47
2023/03/10 09:58:34;;;;;;;22.20;12.23;;;1.90;99.90;;;;;;5054672;28;20551;-53
2023/03/10 10:01:05;;;;;;;23.40;14.13;;;1.90;99.90;;;;;;5043754;28;20202;-47
2023/03/10 10:03:36;;;;;;;21.37;12.80;;;1.90;99.90;;;;;;5040735;28;20783;-56
2023/03/10 10:06:06;;;;;;;16.57;11.70;;;1.90;99.90;;;;;;5050203;28;20234;-47
2023/03/10 10:08:41;;;;;;;21.47;12.43;;;1.90;99.90;;;;;;5045944;28;20211;-56
2023/03/10 10:11:13;;;;;;;21.67;13.37;;;1.90;99.90;;;;;;5028500;28;20908;-47
2023/03/10 10:13:41;;;;;;;23.83;14.20;;;1.90;99.90;;;;;;5040833;28;20655;-56
2023/03/10 10:16:22;;;;;;;22.93;13.00;;;2.00;99.90;;;;;;5049761;28;20202;-48
2023/03/10 10:18:58;;;;;;;22.60;13.07;;;2.00;99.90;;;;;;5054044;28;20677;-55
2023/03/10 10:21:32;;;;;;;24.57;12.90;;;2.00;99.90;;;;;;5037522;28;20732;-46
2023/03/10 10:23:59;;;;;;;25.03;13.93;;;2.00;99.90;;;;;;5041669;28;20225;-53
2023/03/10 10:26:27;;;;;;;21.10;13.23;;;2.10;99.90;;;;;;5033418;28;20288;-46
2023/03/10 10:28:55;;;;;;;22.50;12.67;;;2.10;99.90;;;;;;5045774;28;20198;-56
2023/03/10 10:31:25;;;;;;;20.57;12.93;;;2.10;99.90;;;;;;5050243;28;20214;-50
2023/03/10 10:33:56;;;;;;;20.90;13.17;;;2.10;99.90;;;;;;5051869;28;20208;-56
2023/03/10 10:36:24;;;;;;;19.53;12.63;;;2.10;99.90;;;;;;5047568;28;20293;-50
2023/03/10 10:38:54;;;;;;;22.50;13.77;;;2.10;99.90;;;;;;5049806;28;20245;-58
2023/03/10 10:41:24;;;;;;;22.83;14.17;;;2.10;99.90;;;;;;5027613;28;20210;-51
2023/03/10 10:43:51;;;;;;;19.63;13.23;;;2.10;99.90;;;;;;5043811;28;20218;-57
2023/03/10 10:46:25;;;;;;;23.40;13.97;;;2.10;99.90;;;;;;5041855;28;20893;-50
2023/03/10 10:49:03;;;;;;;23.63;14.00;;;2.10;99.90;;;;;;5045296;28;20603;-57
2023/03/10 10:51:33;;;;;;;23.53;14.43;;;2.10;99.90;;;;;;5049451;28;20268;-45
2023/03/10 10:54:03;;;;;;;26.00;14.80;;;2.10;99.90;;;;;;5046462;28;20207;-56
2023/03/10 10:56:30;;;;;;;25.07;14.07;;;2.20;99.90;;;;;;5048741;28;20307;-50
2023/03/10 10:59:07;;;;;;;26.87;16.33;;;2.20;99.90;;;;;;5028166;28;20291;-56
2023/03/10 11:01:50;;;;;;;23.97;14.67;;;2.20;99.90;;;;;;5048789;28;20229;-50
2023/03/10 11:04:18;;;;;;;23.27;14.10;;;2.30;99.90;;;;;;5047065;28;20292;-50
2023/03/10 11:06:46;;;;;;;23.87;13.63;;;2.30;99.90;;;;;;5055119;28;20274;-53
2023/03/10 11:09:17;;;;;;;21.67;14.07;;;2.30;99.90;;;;;;5050687;28;20217;-47
2023/03/10 11:11:53;;;;;;;23.30;14.70;;;2.40;99.90;;;;;;5044181;28;20213;-52
2023/03/10 11:14:44;;;;;;;22.93;14.67;;;2.40;99.90;;;;;;5042444;28;20225;-50
2023/03/10 11:17:17;;;;;;;24.00;14.63;;;2.40;99.90;;;;;;5039635;28;20922;-51
2023/03/10 11:19:55;;;;;;;21.63;14.17;;;2.40;99.90;;;;;;5046289;28;20247;-47
2023/03/10 11:22:33;;;;;;;22.33;13.87;;;2.40;99.90;;;;;;5040625;28;20233;-48
2023/03/10 11:25:04;;;;;;;24.03;14.60;;;2.30;99.90;;;;;;5049334;28;20199;-51
2023/03/10 11:27:45;;;;;;;22.77;13.87;;;2.30;99.90;;;;;;5039176;28;20294;-51
2023/03/10 11:30:15;;;;;;;18.47;13.17;;;2.30;99.90;;;;;;5042389;28;20314;-54
2023/03/10 11:33:04;;;;;;;20.50;13.77;;;2.30;99.90;;;;;;5051592;28;20233;-54
2023/03/10 11:35:42;;;;;;;21.93;14.83;;;2.30;99.90;;;;;;5062850;28;20691;-46
2023/03/10 11:38:27;;;;;;;24.93;14.20;;;2.20;99.90;;;;;;5052068;28;20199;-46
2023/03/10 11:40:57;;;;;;;20.60;14.27;;;2.20;99.90;;;;;;5045809;28;20297;-57
2023/03/10 11:43:33;;;;;;;20.43;14.13;;;2.30;99.90;;;;;;5052877;28;20225;-46
2023/03/10 11:46:08;;;;;;;23.90;14.00;;;2.30;99.90;;;;;;5036420;28;20289;-48
2023/03/10 11:48:49;;;;;;;18.77;12.13;;;2.20;99.90;;;;;;5048759;28;20291;-48
2023/03/10 11:51:25;;;;;;;18.40;12.23;;;2.20;99.90;;;;;;5048700;28;20226;-49
2023/03/10 11:53:54;;;;;;;22.93;13.90;;;2.20;99.90;;;;;;5053567;28;20767;-56
2023/03/10 11:56:23;;;;;;;20.53;13.13;;;2.30;99.90;;;;;;5045072;28;20202;-49
2023/03/10 11:58:54;;;;;;;20.57;13.17;;;2.30;99.90;;;;;;5050856;28;20200;-53
2023/03/10 12:01:24;;;;;;;21.27;13.83;;;2.30;99.90;;;;;;5037317;28;20294;-51
2023/03/10 12:04:00;;;;;;;17.77;12.43;;;2.20;99.90;;;;;;5048623;28;20233;-53
2023/03/10 12:06:34;;;;;;;18.37;12.93;;;2.30;99.90;;;;;;5056555;28;20725;-50
2023/03/10 12:09:05;;;;;;;23.77;13.43;;;2.30;99.90;;;;;;5049311;28;20338;-53
2023/03/10 12:11:34;;;;;;;19.83;13.27;;;2.30;99.90;;;;;;5055755;28;20192;-49
2023/03/10 12:14:02;;;;;;;18.77;13.77;;;2.30;99.90;;;;;;5044600;28;20222;-49
2023/03/10 12:16:32;;;;;;;17.97;12.53;;;2.40;99.90;;;;;;5036513;28;20203;-50
2023/03/10 12:19:01;;;;;;;20.23;13.60;;;2.40;99.90;;;;;;5048329;28;20927;-51
2023/03/10 12:21:28;;;;;;;18.63;12.50;;;2.50;99.90;;;;;;5052763;28;20218;-53
2023/03/10 12:23:56;;;;;;;19.60;13.30;;;2.50;99.90;;;;;;5047225;28;20250;-49
2023/03/10 12:27:02;;;;;;;19.83;12.90;;;2.60;99.90;;;;;;5042852;28;20286;-50
2023/03/10 12:29:40;;;;;;;19.63;12.77;;;2.60;99.90;;;;;;5041154;28;20222;-53
2023/03/10 12:32:41;;;;;;;24.23;14.47;;;2.60;99.90;;;;;;5042841;28;20263;-52
2023/03/10 12:35:40;;;;;;;19.70;13.07;;;2.70;99.90;;;;;;5045625;28;20198;-52
2023/03/10 12:38:28;;;;;;;19.20;12.67;;;2.70;99.90;;;;;;5050608;28;20739;-52
2023/03/10 12:40:56;;;;;;;18.77;12.63;;;2.70;99.90;;;;;;5047173;28;20672;-50
2023/03/10 12:43:43;;;;;;;17.20;11.60;;;2.80;99.90;;;;;;5047659;28;20230;-52
2023/03/10 12:46:15;;;;;;;19.30;11.97;;;2.80;99.90;;;;;;5039494;28;20211;-54
2023/03/10 12:48:49;;;;;;;20.03;12.73;;;2.70;99.90;;;;;;5055382;28;20208;-53